Aérodrome :
LOGIN :

S'inscrire | Disclaimer

   EN    FR    IT 

 










Légende :    VFR   VFR Marginal   IFR   IFR Intensif   IFR Très Intensif
Visi : 
Plafond : 
>= 8 km
>= 3000ft
5 à 8 km
1000 à 3000 ft
1500m à 5 km
500 à 1000 ft
800 à 1500m
200 à 500 ft
< 800m
< 200 ft
Symboles :   Orages  Brouillard  Fortes neiges  Fortes précipitations  Vent > 20 kt
SIGMETs :   Divers  Orages  Givrage  Turbulence  Onde Orograph.  Cendres Volcan.






- Altitude de l'aérodrome : 191 ft
- Code IATA : RNB


ESDF - Ronneby

DERNIER METAR :
  • 011420Z 25013KT 220V280 9999 -SHRA SCT027 BKN050 07/03 Q1007

METARs EXPIRÉS :
  • 011350Z 27012KT 240V300 9999 -SHRA SCT026 BKN046 07/03 Q1007
  • 011320Z 27011KT 230V300 9999 -SHRA BKN026 08/03 Q1008
  • 011250Z 28013KT 260V320 9999 -RA BKN026 07/03 Q1008
  • 011220Z 28009KT 240V320 9999 SCT023 BKN039 07/04 Q1008
  • 011150Z 28012KT 240V310 9999 -RA SCT019 BKN032 06/03 Q1009

TAF TAF ESDF
Valide du 01 à 15h jusqu'au 01 à 22h UTC


011430Z 0115/0122 27011G22KT 9999 SCT020 BKN040
PROB40 0115/0117 SHRA SCT030TCU



MET'MAP, la Météo Aéronautique d'un coup d'oeil ! - Copyright ORBIFLY Décembre 2007 - Disclaimer

ORBIFLY MET'MAP TEAM :

Programmation & Développement : Alexandra Zaïnal
Sur une idée originale de : Baudouin d'Aumeries
Assistance à la programmation : Marc-Olivier Méhu
Soutien technique & logistique : Manuel Goepfert

Contact : metmap@orbifly.com




SOURCES & CREDITS :

   NOAA